ADDS METAR Data INFO
IDs: Format: Raw Decoded Include TAF

Data at: 1950 UTC 14 Aug 2018

KDTN 141853Z 21007KT 180V240 10SM FEW050 34/21 A3000 RMK AO2 SLP156 T03440211
KDTN 141753Z 24006KT 10SM FEW043 33/22 A3002 RMK AO2 SLP161 T03280222 10328 20239 58007
KDTN 141653Z 23007KT 10SM CLR 32/22 A3003 RMK AO2 SLP167 T03170222
KDTN 141553Z 22009KT 10SM FEW025 31/23 A3004 RMK AO2 SLP169 T03060228
KDTN 141519Z 24009KT 10SM SCT019 29/23 A3004 RMK AO2 T02940233
KDTN 141501Z 23008KT 10SM BKN016 28/24 A3004 RMK AO2 T02830239
KDTN 141453Z 22007KT 10SM BKN014 28/23 A3004 RMK AO2 SLP168 T02780233 51012
KDTN 141353Z 20008KT 10SM OVC010 26/23 A3003 RMK AO2 CIG 009V015 SLP167 T02610233
KDTN 141306Z 15004KT 10SM BKN011 25/23 A3002 RMK AO2 CIG 009V013 T02500233
KDTN 141253Z 14005KT 10SM SCT011 24/23 A3002 RMK AO2 SLP161 T02440228
KDTN 141153Z VRB04KT 10SM CLR 24/23 A3000 RMK AO2 SLP157 T02440228 10278 20244 53007
KDTN 141053Z AUTO 19006KT 10SM CLR 24/22 A2999 RMK AO2 SLP151 T02440222
KDTN 140953Z AUTO 19005KT 10SM CLR 25/22 A2998 RMK AO2 SLP149 T02500222
KDTN 140853Z AUTO 19006KT 10SM CLR 25/22 A2998 RMK AO2 SLP149 T02500222 55002
KDTN 140753Z AUTO 19006KT 10SM CLR 26/22 A2998 RMK AO2 SLP148 T02610222
KDTN 140653Z AUTO 18006KT 10SM CLR 27/22 A2999 RMK AO2 SLP150 T02720217
KDTN 140553Z AUTO 19010KT 10SM CLR 28/22 A2999 RMK AO2 SLP151 T02780217 10328 20278 403440222 53002
KDTN 140453Z AUTO 19009G16KT 10SM CLR 29/21 A2998 RMK AO2 SLP149 T02940211
KDTN 140353Z AUTO 16005KT 10SM CLR 28/21 A2998 RMK AO2 SLP148 T02830211
KDTN 140253Z AUTO 17005KT 10SM CLR 29/21 A2998 RMK AO2 SLP149 T02890211 53003
KDTN 140153Z 12004KT 10SM CLR 29/21 A2997 RMK AO2 SLP145 T02890211
KDTN 140053Z 17007KT 10SM CLR 32/20 A2996 RMK AO2 SLP143 T03170200
KDTN 132353Z 18007KT 10SM CLR 33/21 A2997 RMK AO2 SLP145 T03280206 10344 20322 56008
KDTN 132253Z 18007KT 10SM FEW060 33/21 A2997 RMK AO2 SLP147 T03330206
KDTN 132153Z VRB06KT 10SM FEW060 34/20 A2999 RMK AO2 SLP152 T03390200
KDTN 132053Z 14012KT 10SM FEW055 34/21 A3000 RMK AO2 SLP154 T03390211 56023
KDTN 131953Z 11009KT 10SM CLR 33/22 A3001 RMK AO2 SLP160 T03330217
KDTN 131853Z 00000KT 10SM SCT043 32/21 A3004 RMK AO2 SLP170 T03220211
KDTN 131753Z 12006KT 10SM FEW038 32/22 A3006 RMK AO2 SLP177 T03170222 10317 20222 58009
KDTN 131653Z 17008KT 10SM FEW028 31/23 A3009 RMK AO2 SLP186 T03060228
KDTN 131614Z 18007KT 10SM SCT021 30/24 A3009 RMK AO2 T03000239
KDTN 131603Z 20009KT 10SM BKN021 29/24 A3009 RMK AO2 T02940239
KDTN 131553Z 18007KT 10SM SCT021 29/24 A3010 RMK AO2 SLP189 T02890239
KDTN 131501Z 15007KT 10SM FEW015 SCT020 27/23 A3009 RMK AO2 T02720228
KDTN 131453Z 16005KT 10SM SCT015 BKN020 27/23 A3009 RMK AO2 SLP188 T02670228 51003
KDTN 131418Z 15005KT 10SM BKN013 26/22 A3009 RMK AO2 T02560222
KDTN 131353Z 14006KT 10SM FEW013 FEW026 24/22 A3009 RMK AO2 SLP186 T02440217
KDTN 131253Z 12003KT 10SM CLR 23/21 A3008 RMK AO2 SLP185 T02280211
KDTN 131153Z 13003KT 10SM CLR 22/21 A3008 RMK AO2 SLP183 70104 T02220206 10228 20222 53004
KDTN 131053Z AUTO 14003KT 10SM CLR 22/21 A3007 RMK AO2 SLP180 T02220206
KDTN 130953Z AUTO 25003KT 10SM FEW120 23/21 A3007 RMK AO2 SLP180 T02280206
KDTN 130853Z AUTO 18003KT 10SM CLR 23/21 A3007 RMK AO2 SLP179 T02280206 55003
KDTN 130753Z AUTO 00000KT 10SM CLR 23/21 A3006 RMK AO2 SLP176 T02280206